createdAt,value
2018-11-03T00:00:32.683Z,0.00
2018-11-03T00:01:32.690Z,0.00
2018-11-03T00:03:26.102Z,0.00
2018-11-03T00:04:26.091Z,0.00
2018-11-03T00:06:19.480Z,0.00
2018-11-03T00:07:19.489Z,0.00
2018-11-03T00:09:12.890Z,0.00
2018-11-03T00:10:12.898Z,0.00
2018-11-03T00:12:06.287Z,0.00
2018-11-03T00:13:06.292Z,0.00
2018-11-03T00:14:59.690Z,0.00
2018-11-03T00:15:59.693Z,0.00
2018-11-03T00:17:53.093Z,0.00
2018-11-03T00:18:53.098Z,0.00
2018-11-03T00:20:46.498Z,0.00
2018-11-03T00:21:46.499Z,0.00
2018-11-03T00:23:39.913Z,0.00
2018-11-03T00:24:39.904Z,0.00
2018-11-03T00:26:33.286Z,0.00
2018-11-03T00:27:33.300Z,0.00
2018-11-03T00:29:26.697Z,0.00
2018-11-03T00:30:26.703Z,0.00
2018-11-03T00:32:20.093Z,0.00
2018-11-03T00:33:20.115Z,0.00
2018-11-03T00:35:13.530Z,0.00
2018-11-03T00:36:13.503Z,0.00
2018-11-03T00:38:06.901Z,0.00
2018-11-03T00:39:06.927Z,0.00
2018-11-03T00:41:00.638Z,0.00
2018-11-03T00:42:00.310Z,0.00
2018-11-03T00:43:53.708Z,0.00
2018-11-03T00:44:53.708Z,0.00
2018-11-03T00:46:47.108Z,0.00
2018-11-03T00:47:47.114Z,0.00
2018-11-03T00:49:40.513Z,0.00
2018-11-03T00:50:40.524Z,0.00
2018-11-03T00:52:34.899Z,0.00
2018-11-03T00:53:34.962Z,0.00
2018-11-03T00:55:28.305Z,0.00
2018-11-03T00:56:28.313Z,0.00
2018-11-03T00:58:21.703Z,0.00
2018-11-03T00:59:21.711Z,0.00
2018-11-03T01:01:15.124Z,0.00
2018-11-03T01:02:15.101Z,0.00
2018-11-03T01:04:08.513Z,0.00
2018-11-03T01:05:08.504Z,0.00
2018-11-03T01:07:01.930Z,0.00
2018-11-03T01:08:01.917Z,0.00
2018-11-03T01:09:55.302Z,0.00
2018-11-03T01:10:55.302Z,0.00
2018-11-03T01:12:48.689Z,0.00
2018-11-03T01:13:48.700Z,0.00
2018-11-03T01:15:42.097Z,0.00
2018-11-03T01:16:42.099Z,0.00
2018-11-03T01:18:35.499Z,0.00
2018-11-03T01:19:35.509Z,0.00
2018-11-03T01:21:28.904Z,0.00
2018-11-03T01:22:28.906Z,0.00
2018-11-03T01:24:22.318Z,0.00
2018-11-03T01:25:22.318Z,0.00
2018-11-03T01:27:15.739Z,0.00
2018-11-03T01:28:15.752Z,0.00
2018-11-03T01:30:09.154Z,0.00
2018-11-03T01:31:09.154Z,0.00
2018-11-03T01:33:02.542Z,0.00
2018-11-03T01:34:02.558Z,0.00
2018-11-03T01:35:56.330Z,0.00
2018-11-03T01:36:56.320Z,0.00
2018-11-03T01:38:49.885Z,0.00
2018-11-03T01:39:49.579Z,0.00
2018-11-03T01:41:44.207Z,0.00
2018-11-03T01:42:42.998Z,0.00
2018-11-03T01:44:36.700Z,0.00
2018-11-03T01:45:36.302Z,0.00
2018-11-03T01:47:31.481Z,0.00
2018-11-03T01:48:31.098Z,0.00
2018-11-03T01:50:26.469Z,0.00
2018-11-03T01:51:26.389Z,0.00
2018-11-03T01:53:19.250Z,0.00
2018-11-03T01:54:19.261Z,0.00
2018-11-03T01:56:12.175Z,0.00
2018-11-03T01:57:12.170Z,0.00
2018-11-03T01:59:05.564Z,0.00
2018-11-03T02:00:05.566Z,0.00
2018-11-03T02:01:58.962Z,0.00
2018-11-03T02:02:58.967Z,0.00
2018-11-03T02:04:52.358Z,0.00
2018-11-03T02:05:52.367Z,0.00
2018-11-03T02:07:45.789Z,0.00
2018-11-03T02:08:45.768Z,0.00
2018-11-03T02:10:39.169Z,0.00
2018-11-03T02:11:39.174Z,0.00
2018-11-03T02:13:32.567Z,0.00
2018-11-03T02:14:32.576Z,0.00
2018-11-03T02:16:25.967Z,0.00
2018-11-03T02:17:25.974Z,0.00
2018-11-03T02:19:19.368Z,0.00
2018-11-03T02:20:19.380Z,0.00
2018-11-03T02:22:12.778Z,0.00
2018-11-03T02:23:12.771Z,0.00
2018-11-03T02:25:06.160Z,0.00
2018-11-03T02:26:06.169Z,0.00
2018-11-03T02:28:07.185Z,0.00
2018-11-03T02:29:07.193Z,0.00
2018-11-03T02:30:52.948Z,0.00
2018-11-03T02:32:00.584Z,0.00
2018-11-03T02:33:46.371Z,0.00
2018-11-03T02:34:54.000Z,0.00
2018-11-03T02:36:39.772Z,0.00
2018-11-03T02:37:39.777Z,0.00
2018-11-03T02:39:33.158Z,0.00
2018-11-03T02:40:33.169Z,0.00
2018-11-03T02:42:26.562Z,0.00
2018-11-03T02:43:26.576Z,0.00
2018-11-03T02:45:19.953Z,0.00
2018-11-03T02:46:19.971Z,0.00
2018-11-03T02:48:13.356Z,0.00
2018-11-03T02:49:13.359Z,0.00
2018-11-03T02:51:07.946Z,0.00
2018-11-03T02:52:07.960Z,0.00
2018-11-03T02:54:01.352Z,0.00
2018-11-03T02:55:01.351Z,0.00
2018-11-03T02:56:54.744Z,0.00
2018-11-03T02:57:54.746Z,0.00
2018-11-03T02:59:48.143Z,0.00
2018-11-03T03:00:48.151Z,0.00
2018-11-03T03:02:41.554Z,0.00
2018-11-03T03:03:41.544Z,0.00
2018-11-03T03:05:34.931Z,0.00
2018-11-03T03:06:34.948Z,0.00
2018-11-03T03:08:29.355Z,0.00
2018-11-03T03:09:29.361Z,0.00
2018-11-03T03:11:22.740Z,0.00
2018-11-03T03:12:22.735Z,0.00
2018-11-03T03:14:16.143Z,0.00
2018-11-03T03:15:16.133Z,0.00
2018-11-03T03:17:09.523Z,0.00
2018-11-03T03:18:09.533Z,0.00
2018-11-03T03:20:02.925Z,0.00
2018-11-03T03:21:02.926Z,0.00
2018-11-03T03:22:56.323Z,0.00
2018-11-03T03:23:56.327Z,0.00
2018-11-03T03:25:49.719Z,0.00
2018-11-03T03:26:49.724Z,0.00
2018-11-03T03:28:43.134Z,0.00
2018-11-03T03:29:43.245Z,0.00
2018-11-03T03:31:36.515Z,0.00
2018-11-03T03:32:36.531Z,0.00
2018-11-03T03:34:30.021Z,0.00
2018-11-03T03:35:29.924Z,0.00
2018-11-03T03:37:23.310Z,0.00
2018-11-03T03:38:23.326Z,0.00
2018-11-03T03:40:17.908Z,0.00
2018-11-03T03:41:17.912Z,0.00
2018-11-03T03:43:11.303Z,0.00
2018-11-03T03:44:11.309Z,0.00
2018-11-03T03:46:04.705Z,0.00
2018-11-03T03:47:04.707Z,0.00
2018-11-03T03:48:58.117Z,0.00
2018-11-03T03:49:58.120Z,0.00
2018-11-03T03:51:51.494Z,0.00
2018-11-03T03:52:51.500Z,0.00
2018-11-03T03:54:44.903Z,0.00
2018-11-03T03:55:44.895Z,0.00
2018-11-03T03:57:38.288Z,0.00
2018-11-03T03:58:38.297Z,0.00
2018-11-03T04:00:32.697Z,0.00
2018-11-03T04:01:32.696Z,0.00
2018-11-03T04:03:27.277Z,0.00
2018-11-03T04:04:27.291Z,0.00
2018-11-03T04:06:20.691Z,0.00
2018-11-03T04:07:20.698Z,0.00
2018-11-03T04:09:14.084Z,0.00
2018-11-03T04:10:14.089Z,0.00
2018-11-03T04:12:07.511Z,0.00
2018-11-03T04:13:07.496Z,0.00
2018-11-03T04:15:00.913Z,0.00
2018-11-03T04:16:00.893Z,0.00
2018-11-03T04:17:54.281Z,0.00
2018-11-03T04:18:54.290Z,0.00
2018-11-03T04:20:47.688Z,0.00
2018-11-03T04:21:47.684Z,0.00
2018-11-03T04:23:41.079Z,0.00
2018-11-03T04:24:41.081Z,0.00
2018-11-03T04:26:34.482Z,0.00
2018-11-03T04:27:34.484Z,0.00
2018-11-03T04:29:27.874Z,0.00
2018-11-03T04:30:27.876Z,0.00
2018-11-03T04:32:21.273Z,0.00
2018-11-03T04:33:21.274Z,0.00
2018-11-03T04:35:14.665Z,0.00
2018-11-03T04:36:14.679Z,0.00
2018-11-03T04:38:08.066Z,0.00
2018-11-03T04:39:08.067Z,0.00
2018-11-03T04:41:01.477Z,0.00
2018-11-03T04:42:01.479Z,0.00
2018-11-03T04:43:54.865Z,0.00
2018-11-03T04:44:54.874Z,0.00
2018-11-03T04:46:48.268Z,0.00
2018-11-03T04:47:48.272Z,0.00
2018-11-03T04:49:41.679Z,0.00
2018-11-03T04:50:41.680Z,0.00
2018-11-03T04:52:35.082Z,0.00
2018-11-03T04:53:35.081Z,0.00
2018-11-03T04:55:28.471Z,0.00
2018-11-03T04:56:28.481Z,0.00
2018-11-03T04:58:21.879Z,0.00
2018-11-03T04:59:21.896Z,0.00
2018-11-03T05:01:15.290Z,0.00
2018-11-03T05:02:15.274Z,0.00
2018-11-03T05:04:08.676Z,0.00
2018-11-03T05:05:08.676Z,0.00
2018-11-03T05:07:02.069Z,0.00
2018-11-03T05:08:02.070Z,0.00
2018-11-03T05:09:55.469Z,0.00
2018-11-03T05:10:55.467Z,0.00
2018-11-03T05:12:48.871Z,0.00
2018-11-03T05:13:48.868Z,0.00
2018-11-03T05:15:42.254Z,0.00
2018-11-03T05:16:42.262Z,0.00
2018-11-03T05:18:35.661Z,0.00
2018-11-03T05:19:35.665Z,0.00
2018-11-03T05:21:29.153Z,0.00
2018-11-03T05:22:29.060Z,0.00
2018-11-03T05:24:22.453Z,0.00
2018-11-03T05:25:22.464Z,0.00
2018-11-03T05:27:15.850Z,0.00
2018-11-03T05:28:15.848Z,0.00
2018-11-03T05:30:09.246Z,0.00
2018-11-03T05:31:09.302Z,0.00
2018-11-03T05:33:02.638Z,0.00
2018-11-03T05:34:02.644Z,0.00
2018-11-03T05:35:56.040Z,0.00
2018-11-03T05:36:56.037Z,0.00
2018-11-03T05:38:49.937Z,0.00
2018-11-03T05:39:49.936Z,0.00
2018-11-03T05:41:43.331Z,0.00
2018-11-03T05:42:43.356Z,0.00
2018-11-03T05:44:36.753Z,0.00
2018-11-03T05:45:36.750Z,0.00
2018-11-03T05:47:30.174Z,0.00
2018-11-03T05:48:30.151Z,0.00
2018-11-03T05:50:23.534Z,0.00
2018-11-03T05:51:23.545Z,0.00
2018-11-03T05:53:16.962Z,0.00
2018-11-03T05:54:16.963Z,4.00
2018-11-03T05:56:10.360Z,0.00
2018-11-03T05:57:10.366Z,4.00
2018-11-03T05:59:03.862Z,4.00
2018-11-03T06:00:03.764Z,8.00
2018-11-03T06:01:57.172Z,8.00
2018-11-03T06:02:57.175Z,12.00
2018-11-03T06:04:50.555Z,16.00
2018-11-03T06:05:50.554Z,20.00
2018-11-03T06:07:43.943Z,24.00
2018-11-03T06:08:44.011Z,28.00
2018-11-03T06:10:37.348Z,40.00
2018-11-03T06:11:37.347Z,48.00
2018-11-03T06:13:30.754Z,60.00
2018-11-03T06:14:30.755Z,68.00
2018-11-03T06:16:24.150Z,88.00
2018-11-03T06:17:24.162Z,96.00
2018-11-03T06:19:17.549Z,120.00
2018-11-03T06:20:17.567Z,128.00
2018-11-03T06:22:10.943Z,156.00
2018-11-03T06:23:10.985Z,172.00
2018-11-03T06:25:04.357Z,204.00
2018-11-03T06:26:04.349Z,228.00
2018-11-03T06:27:57.762Z,272.00
2018-11-03T06:28:57.777Z,296.00
2018-11-03T06:30:51.158Z,344.00
2018-11-03T06:31:51.158Z,376.00
2018-11-03T06:33:44.586Z,432.00
2018-11-03T06:34:44.558Z,464.00
2018-11-03T06:36:37.939Z,524.00
2018-11-03T06:37:37.952Z,564.00
2018-11-03T06:39:31.345Z,640.00
2018-11-03T06:40:31.356Z,680.00
2018-11-03T06:42:24.744Z,760.00
2018-11-03T06:43:24.744Z,804.00
2018-11-03T06:45:18.148Z,888.00
2018-11-03T06:46:18.184Z,940.00
2018-11-03T06:48:12.538Z,1044.00
2018-11-03T06:49:12.558Z,1120.00
2018-11-03T06:51:05.954Z,1256.00
2018-11-03T06:52:06.005Z,1324.00
2018-11-03T06:53:59.340Z,1416.00
2018-11-03T06:54:59.367Z,1456.00
2018-11-03T06:56:52.745Z,1540.00
2018-11-03T06:57:52.746Z,1612.00
2018-11-03T06:59:46.138Z,1768.00
2018-11-03T07:00:46.148Z,1828.00
2018-11-03T07:02:39.549Z,1932.00
2018-11-03T07:03:39.546Z,2020.00
2018-11-03T07:05:32.941Z,2132.00
2018-11-03T07:06:32.945Z,2200.00
2018-11-03T07:08:26.337Z,2308.00
2018-11-03T07:09:26.352Z,2388.00
2018-11-03T07:11:19.779Z,2520.00
2018-11-03T07:12:19.946Z,2592.00
2018-11-03T07:14:13.127Z,2684.00
2018-11-03T07:15:13.136Z,2744.00
2018-11-03T07:17:07.531Z,2840.00
2018-11-03T07:18:07.529Z,2872.00
2018-11-03T07:20:00.920Z,2904.00
2018-11-03T07:21:00.936Z,2912.00
2018-11-03T07:22:54.327Z,2944.00
2018-11-03T07:23:54.327Z,2964.00
2018-11-03T07:25:47.723Z,3064.00
2018-11-03T07:26:47.727Z,3136.00
2018-11-03T07:28:41.117Z,3264.00
2018-11-03T07:29:41.186Z,3332.00
2018-11-03T07:31:34.528Z,3448.00
2018-11-03T07:32:34.527Z,3500.00
2018-11-03T07:34:27.920Z,3492.00
2018-11-03T07:35:27.930Z,3492.00
2018-11-03T07:37:21.325Z,3484.00
2018-11-03T07:38:21.331Z,3496.00
2018-11-03T07:40:14.717Z,3468.00
2018-11-03T07:41:14.782Z,3464.00
2018-11-03T07:43:08.128Z,3536.00
2018-11-03T07:44:08.145Z,3576.00
2018-11-03T07:46:01.529Z,3824.00
2018-11-03T07:47:01.531Z,3844.00
2018-11-03T07:48:55.019Z,3852.00
2018-11-03T07:49:55.072Z,3848.00
2018-11-03T07:51:48.355Z,3852.00
2018-11-03T07:52:48.344Z,3904.00
2018-11-03T07:54:41.809Z,3928.00
2018-11-03T07:55:41.757Z,3832.00
2018-11-03T07:57:34.660Z,3776.00
2018-11-03T07:58:34.700Z,3924.00
2018-11-03T08:00:28.059Z,3944.00
2018-11-03T08:01:28.052Z,3840.00
2018-11-03T08:03:21.446Z,3700.00
2018-11-03T08:04:21.455Z,3632.00
2018-11-03T08:06:14.856Z,3632.00
2018-11-03T08:07:14.866Z,3684.00
2018-11-03T08:09:08.386Z,3780.00
2018-11-03T08:10:08.286Z,3780.00
2018-11-03T08:12:01.711Z,3800.00
2018-11-03T08:13:01.685Z,3672.00
2018-11-03T08:14:55.123Z,3624.00
2018-11-03T08:15:55.180Z,3496.00
2018-11-03T08:17:48.535Z,3356.00
2018-11-03T08:18:48.545Z,3296.00
2018-11-03T08:20:41.909Z,3304.00
2018-11-03T08:21:41.921Z,3364.00
2018-11-03T08:23:35.325Z,3176.00
2018-11-03T08:24:35.330Z,3252.00
2018-11-03T08:26:28.750Z,3280.00
2018-11-03T08:27:28.737Z,3332.00
2018-11-03T08:29:22.136Z,3256.00
2018-11-03T08:30:22.157Z,3204.00
2018-11-03T08:32:15.565Z,3156.00
2018-11-03T08:33:15.582Z,3144.00
2018-11-03T08:35:08.974Z,3180.00
2018-11-03T08:36:08.980Z,3196.00
2018-11-03T08:38:02.386Z,3304.00
2018-11-03T08:39:02.379Z,3352.00
2018-11-03T08:40:55.270Z,3368.00
2018-11-03T08:41:55.282Z,3364.00
2018-11-03T08:43:48.189Z,3244.00
2018-11-03T08:44:48.197Z,3204.00
2018-11-03T08:46:41.089Z,3084.00
2018-11-03T08:47:41.100Z,3056.00
2018-11-03T08:49:34.749Z,2996.00
2018-11-03T08:50:34.755Z,3008.00
2018-11-03T08:52:27.658Z,3040.00
2018-11-03T08:53:27.661Z,3100.00
2018-11-03T08:55:21.073Z,3180.00
2018-11-03T08:57:34.520Z,3324.00
2018-11-03T08:58:34.474Z,3368.00
2018-11-03T09:00:27.904Z,3496.00
2018-11-03T09:01:35.477Z,3592.00
2018-11-03T09:03:21.284Z,3804.00
2018-11-03T09:04:21.286Z,3820.00
2018-11-03T09:06:14.676Z,3820.00
2018-11-03T09:07:14.688Z,3844.00
2018-11-03T09:09:08.161Z,3912.00
2018-11-03T09:10:08.093Z,3964.00
2018-11-03T09:12:02.063Z,4048.00
2018-11-03T09:13:01.507Z,4084.00
2018-11-03T09:14:54.407Z,4092.00
2018-11-03T09:15:54.402Z,4092.00
2018-11-03T09:17:47.798Z,4032.00
2018-11-03T09:18:47.804Z,4012.00
2018-11-03T09:20:40.766Z,4004.00
2018-11-03T09:21:40.772Z,4072.00
2018-11-03T09:23:34.126Z,4088.00
2018-11-03T09:24:34.129Z,4044.00
2018-11-03T09:26:27.528Z,4048.00
2018-11-03T09:27:27.541Z,4068.00
2018-11-03T09:29:20.454Z,4068.00
2018-11-03T09:30:20.451Z,4012.00
2018-11-03T09:32:13.344Z,3892.00
2018-11-03T09:33:13.359Z,3844.00
2018-11-03T09:35:06.262Z,3756.00
2018-11-03T09:36:06.266Z,3844.00
2018-11-03T09:37:59.710Z,3828.00
2018-11-03T09:38:59.746Z,3872.00
2018-11-03T09:40:53.150Z,3960.00
2018-11-03T09:41:53.086Z,3980.00
2018-11-03T09:43:46.487Z,4036.00
2018-11-03T09:44:46.499Z,4072.00
2018-11-03T09:46:39.890Z,4060.00
2018-11-03T09:47:39.907Z,4028.00
2018-11-03T09:49:33.308Z,3948.00
2018-11-03T09:50:33.417Z,3932.00
2018-11-03T09:52:26.711Z,3880.00
2018-11-03T09:53:26.716Z,3816.00
2018-11-03T09:55:20.117Z,3764.00
2018-11-03T09:56:20.169Z,3732.00
2018-11-03T09:58:13.560Z,3672.00
2018-11-03T09:59:13.540Z,3636.00
2018-11-03T10:01:06.929Z,3588.00
2018-11-03T10:02:06.934Z,3604.00
2018-11-03T10:04:00.843Z,3544.00
2018-11-03T10:05:00.342Z,3520.00
2018-11-03T10:06:53.259Z,3480.00
2018-11-03T10:07:53.253Z,3456.00
2018-11-03T10:09:46.666Z,3416.00
2018-11-03T10:10:46.708Z,3408.00
2018-11-03T10:12:40.074Z,3360.00
2018-11-03T10:13:40.084Z,3320.00
2018-11-03T10:15:33.481Z,3256.00
2018-11-03T10:16:33.487Z,3172.00
2018-11-03T10:18:26.881Z,3120.00
2018-11-03T10:19:26.895Z,3060.00
2018-11-03T10:21:20.306Z,3024.00
2018-11-03T10:22:20.395Z,3036.00
2018-11-03T10:24:13.726Z,3020.00
2018-11-03T10:25:13.719Z,2988.00
2018-11-03T10:27:07.119Z,2984.00
2018-11-03T10:28:07.142Z,2988.00
2018-11-03T10:30:00.547Z,2944.00
2018-11-03T10:31:00.535Z,2972.00
2018-11-03T10:32:53.931Z,2948.00
2018-11-03T10:33:53.945Z,2928.00
2018-11-03T10:35:47.342Z,2904.00
2018-11-03T10:36:47.347Z,2884.00
2018-11-03T10:38:40.753Z,2864.00
2018-11-03T10:39:40.767Z,2880.00
2018-11-03T10:41:34.169Z,2976.00
2018-11-03T10:42:34.188Z,2948.00
2018-11-03T10:44:27.570Z,2976.00
2018-11-03T10:45:27.589Z,2984.00
2018-11-03T10:47:20.991Z,2976.00
2018-11-03T10:48:21.009Z,2968.00
2018-11-03T10:50:14.515Z,2992.00
2018-11-03T10:51:14.406Z,2956.00
2018-11-03T10:53:07.809Z,3008.00
2018-11-03T10:54:07.813Z,2988.00
2018-11-03T10:56:01.215Z,2944.00
2018-11-03T10:57:01.221Z,2928.00
2018-11-03T10:58:54.615Z,2972.00
2018-11-03T10:59:54.626Z,3008.00
2018-11-03T11:01:47.542Z,3016.00
2018-11-03T11:02:47.547Z,3020.00
2018-11-03T11:04:40.934Z,2968.00
2018-11-03T11:05:40.947Z,2972.00
2018-11-03T11:07:34.348Z,2976.00
2018-11-03T11:08:34.353Z,2948.00
2018-11-03T11:10:27.771Z,2916.00
2018-11-03T11:11:27.771Z,2848.00
2018-11-03T11:13:21.181Z,2836.00
2018-11-03T11:14:21.220Z,2828.00
2018-11-03T11:16:14.613Z,2816.00
2018-11-03T11:17:14.597Z,2792.00
2018-11-03T11:19:07.998Z,2764.00
2018-11-03T11:20:08.548Z,2744.00
2018-11-03T11:22:01.414Z,2720.00
2018-11-03T11:23:01.428Z,2716.00
2018-11-03T11:24:55.317Z,2688.00
2018-11-03T11:25:54.825Z,2668.00
2018-11-03T11:27:48.236Z,2516.00
2018-11-03T11:28:48.244Z,2452.00
2018-11-03T11:30:41.650Z,2488.00
2018-11-03T11:31:41.657Z,2500.00
2018-11-03T11:33:35.061Z,2468.00
2018-11-03T11:34:35.069Z,2464.00
2018-11-03T11:36:27.963Z,2512.00
2018-11-03T11:37:28.001Z,2532.00
2018-11-03T11:39:20.885Z,2500.00
2018-11-03T11:40:20.888Z,2524.00
2018-11-03T11:42:14.293Z,2544.00
2018-11-03T11:43:14.438Z,2532.00
2018-11-03T11:45:07.691Z,2496.00
2018-11-03T11:46:07.707Z,2524.00
2018-11-03T11:48:01.105Z,2568.00
2018-11-03T11:49:01.112Z,2548.00
2018-11-03T11:50:54.013Z,2552.00
2018-11-03T11:51:54.027Z,2556.00
2018-11-03T11:53:47.427Z,2536.00
2018-11-03T11:54:47.493Z,2524.00
2018-11-03T11:56:40.333Z,2508.00
2018-11-03T11:57:40.348Z,2496.00
2018-11-03T11:59:33.263Z,2480.00
2018-11-03T12:00:33.264Z,2476.00
2018-11-03T12:02:26.741Z,2500.00
2018-11-03T12:03:26.662Z,2496.00
2018-11-03T12:05:20.066Z,2504.00
2018-11-03T12:06:20.069Z,2500.00
2018-11-03T12:08:13.474Z,2496.00
2018-11-03T12:09:13.480Z,2492.00
2018-11-03T12:11:06.389Z,2508.00
2018-11-03T12:12:06.391Z,2508.00
2018-11-03T12:13:59.300Z,2496.00
2018-11-03T12:14:59.306Z,2484.00
2018-11-03T12:16:52.711Z,2472.00
2018-11-03T12:17:52.727Z,2464.00
2018-11-03T12:19:46.126Z,2468.00
2018-11-03T12:20:46.136Z,2456.00
2018-11-03T12:22:39.536Z,2440.00
2018-11-03T12:23:39.543Z,2432.00
2018-11-03T12:25:33.000Z,2412.00
2018-11-03T12:26:32.962Z,2412.00
2018-11-03T12:28:25.854Z,2432.00
2018-11-03T12:29:25.870Z,2440.00
2018-11-03T12:31:19.271Z,2436.00
2018-11-03T12:32:19.298Z,2432.00
2018-11-03T12:34:12.187Z,2432.00
2018-11-03T12:35:12.193Z,2428.00
2018-11-03T12:37:05.589Z,2424.00
2018-11-03T12:38:05.601Z,2424.00
2018-11-03T12:39:59.011Z,2416.00
2018-11-03T12:40:59.134Z,2412.00
2018-11-03T12:42:51.915Z,2408.00
2018-11-03T12:43:51.955Z,2396.00
2018-11-03T12:45:44.841Z,2364.00
2018-11-03T12:46:44.863Z,2356.00
2018-11-03T12:48:37.749Z,2360.00
2018-11-03T12:49:37.762Z,2356.00
2018-11-03T12:51:30.672Z,2360.00
2018-11-03T12:52:30.677Z,2376.00
2018-11-03T12:54:23.582Z,2392.00
2018-11-03T12:55:23.777Z,2396.00
2018-11-03T12:57:16.540Z,2392.00
2018-11-03T12:58:16.507Z,2364.00
2018-11-03T13:00:09.428Z,2364.00
2018-11-03T13:01:09.426Z,2356.00
2018-11-03T13:03:02.324Z,2344.00
2018-11-03T13:04:02.341Z,2336.00
2018-11-03T13:05:55.245Z,2336.00
2018-11-03T13:06:55.252Z,2328.00
2018-11-03T13:08:48.645Z,2312.00
2018-11-03T13:09:48.712Z,2300.00
2018-11-03T13:11:42.061Z,2292.00
2018-11-03T13:12:42.069Z,2300.00
2018-11-03T13:14:34.970Z,2328.00
2018-11-03T13:15:35.038Z,2372.00
2018-11-03T13:17:27.890Z,2292.00
2018-11-03T13:18:27.897Z,2268.00
2018-11-03T13:20:21.793Z,2240.00
2018-11-03T13:21:21.807Z,2216.00
2018-11-03T13:23:14.718Z,2180.00
2018-11-03T13:24:14.723Z,2164.00
2018-11-03T13:26:07.628Z,2152.00
2018-11-03T13:27:07.635Z,2152.00
2018-11-03T13:29:00.533Z,2164.00
2018-11-03T13:30:00.546Z,2160.00
2018-11-03T13:31:53.453Z,2160.00
2018-11-03T13:32:53.460Z,2160.00
2018-11-03T13:34:46.368Z,2152.00
2018-11-03T13:35:46.372Z,2152.00
2018-11-03T13:37:39.280Z,2148.00
2018-11-03T13:38:39.286Z,2144.00
2018-11-03T13:40:32.188Z,2132.00
2018-11-03T13:41:32.202Z,2124.00
2018-11-03T13:43:25.107Z,2128.00
2018-11-03T13:44:25.113Z,2128.00
2018-11-03T13:46:18.021Z,2124.00
2018-11-03T13:47:18.081Z,2120.00
2018-11-03T13:49:11.425Z,2112.00
2018-11-03T13:50:11.435Z,2104.00
2018-11-03T13:52:04.349Z,2096.00
2018-11-03T13:53:04.354Z,2084.00
2018-11-03T13:54:57.257Z,2068.00
2018-11-03T13:55:57.269Z,2060.00
2018-11-03T13:57:50.672Z,2056.00
2018-11-03T13:58:50.678Z,2044.00
2018-11-03T14:00:43.579Z,2040.00
2018-11-03T14:01:43.590Z,2032.00
2018-11-03T14:03:36.505Z,2012.00
2018-11-03T14:04:36.497Z,2000.00
2018-11-03T14:06:29.416Z,1980.00
2018-11-03T14:07:29.417Z,1972.00
2018-11-03T14:09:22.324Z,1964.00
2018-11-03T14:10:22.384Z,1960.00
2018-11-03T14:12:15.239Z,1952.00
2018-11-03T14:13:15.258Z,1944.00
2018-11-03T14:15:08.148Z,1932.00
2018-11-03T14:16:08.164Z,1928.00
2018-11-03T14:18:01.070Z,1924.00
2018-11-03T14:19:01.077Z,1920.00
2018-11-03T14:20:53.987Z,1908.00
2018-11-03T14:21:53.994Z,1904.00
2018-11-03T14:23:46.901Z,1888.00
2018-11-03T14:24:46.906Z,1896.00
2018-11-03T14:26:39.809Z,2048.00
2018-11-03T14:27:39.903Z,2100.00
2018-11-03T14:29:32.732Z,1860.00
2018-11-03T14:30:32.738Z,1824.00
2018-11-03T14:32:25.636Z,1800.00
2018-11-03T14:33:25.660Z,1796.00
2018-11-03T14:35:18.558Z,1788.00
2018-11-03T14:36:18.646Z,1780.00
2018-11-03T14:38:11.475Z,1764.00
2018-11-03T14:39:11.485Z,1760.00
2018-11-03T14:41:04.388Z,1740.00
2018-11-03T14:42:04.398Z,1732.00
2018-11-03T14:43:57.308Z,1708.00
2018-11-03T14:44:57.335Z,1700.00
2018-11-03T14:46:50.233Z,1672.00
2018-11-03T14:47:50.237Z,1656.00
2018-11-03T14:49:43.154Z,1636.00
2018-11-03T14:50:43.199Z,1624.00
2018-11-03T14:52:36.064Z,1604.00
2018-11-03T14:53:36.078Z,1596.00
2018-11-03T14:55:28.985Z,1572.00
2018-11-03T14:56:28.993Z,1560.00
2018-11-03T14:58:21.894Z,1536.00
2018-11-03T14:59:21.904Z,1520.00
2018-11-03T15:01:14.815Z,1492.00
2018-11-03T15:02:14.820Z,1476.00
2018-11-03T15:04:07.722Z,1440.00
2018-11-03T15:05:07.738Z,1420.00
2018-11-03T15:07:00.642Z,1376.00
2018-11-03T15:08:00.648Z,1360.00
2018-11-03T15:09:53.568Z,1328.00
2018-11-03T15:10:53.559Z,1308.00
2018-11-03T15:12:46.464Z,1252.00
2018-11-03T15:13:46.573Z,1216.00
2018-11-03T15:15:39.391Z,1144.00
2018-11-03T15:16:39.397Z,1108.00
2018-11-03T15:18:32.294Z,1048.00
2018-11-03T15:19:32.309Z,1028.00
2018-11-03T15:21:25.218Z,992.00
2018-11-03T15:22:25.226Z,972.00
2018-11-03T15:24:18.119Z,932.00
2018-11-03T15:25:18.131Z,908.00
2018-11-03T15:27:11.042Z,868.00
2018-11-03T15:28:11.046Z,852.00
2018-11-03T15:30:03.944Z,808.00
2018-11-03T15:31:03.958Z,788.00
2018-11-03T15:32:56.866Z,748.00
2018-11-03T15:33:56.872Z,720.00
2018-11-03T15:35:49.780Z,676.00
2018-11-03T15:36:49.784Z,656.00
2018-11-03T15:38:42.686Z,604.00
2018-11-03T15:39:42.699Z,580.00
2018-11-03T15:41:35.615Z,520.00
2018-11-03T15:42:35.611Z,484.00
2018-11-03T15:44:28.509Z,420.00
2018-11-03T15:45:28.525Z,388.00
2018-11-03T15:47:21.434Z,328.00
2018-11-03T15:48:21.440Z,300.00
2018-11-03T15:50:14.338Z,252.00
2018-11-03T15:51:14.348Z,228.00
2018-11-03T15:53:07.261Z,192.00
2018-11-03T15:54:07.267Z,172.00
2018-11-03T15:56:00.265Z,144.00
2018-11-03T15:57:00.180Z,128.00
2018-11-03T15:58:54.101Z,104.00
2018-11-03T15:59:54.096Z,96.00
2018-11-03T16:01:47.288Z,76.00
2018-11-03T16:02:47.211Z,68.00
2018-11-03T16:04:40.117Z,56.00
2018-11-03T16:05:40.125Z,48.00
2018-11-03T16:07:33.030Z,40.00
2018-11-03T16:08:33.042Z,36.00
2018-11-03T16:10:25.934Z,24.00
2018-11-03T16:11:25.945Z,20.00
2018-11-03T16:13:18.848Z,16.00
2018-11-03T16:14:18.860Z,16.00
2018-11-03T16:16:11.755Z,12.00
2018-11-03T16:17:11.766Z,12.00
2018-11-03T16:19:04.672Z,8.00
2018-11-03T16:20:04.673Z,4.00
2018-11-03T16:21:57.577Z,4.00
2018-11-03T16:22:57.587Z,4.00
2018-11-03T16:24:50.493Z,4.00
2018-11-03T16:25:50.565Z,0.00
2018-11-03T16:27:43.401Z,0.00
2018-11-03T16:28:43.404Z,0.00
2018-11-03T16:30:36.311Z,0.00
2018-11-03T16:31:36.318Z,0.00
2018-11-03T16:33:29.233Z,0.00
2018-11-03T16:34:29.239Z,0.00
2018-11-03T16:36:22.141Z,0.00
2018-11-03T16:37:22.150Z,0.00
2018-11-03T16:39:15.052Z,0.00
2018-11-03T16:40:15.060Z,0.00
2018-11-03T16:42:07.953Z,0.00
2018-11-03T16:43:07.965Z,0.00
2018-11-03T16:45:00.880Z,0.00
2018-11-03T16:46:00.884Z,0.00
2018-11-03T16:47:53.779Z,0.00
2018-11-03T16:48:53.787Z,0.00
2018-11-03T16:50:46.694Z,0.00
2018-11-03T16:51:46.699Z,0.00
2018-11-03T16:53:39.602Z,0.00
2018-11-03T16:54:39.605Z,0.00
2018-11-03T16:56:33.007Z,0.00
2018-11-03T16:57:33.017Z,0.00
2018-11-03T16:59:25.921Z,0.00
2018-11-03T17:00:25.924Z,0.00
2018-11-03T17:02:18.818Z,0.00
2018-11-03T17:03:18.828Z,0.00
2018-11-03T17:05:11.737Z,0.00
2018-11-03T17:06:11.758Z,0.00
2018-11-03T17:08:04.639Z,0.00
2018-11-03T17:09:04.651Z,0.00
2018-11-03T17:10:57.550Z,0.00
2018-11-03T17:11:57.551Z,0.00
2018-11-03T17:13:50.445Z,0.00
2018-11-03T17:14:50.456Z,0.00
2018-11-03T17:16:43.859Z,0.00
2018-11-03T17:17:43.860Z,0.00
2018-11-03T17:19:36.760Z,0.00
2018-11-03T17:20:36.778Z,0.00
2018-11-03T17:22:29.672Z,0.00
2018-11-03T17:23:29.726Z,0.00
2018-11-03T17:25:22.626Z,0.00
2018-11-03T17:26:22.589Z,0.00
2018-11-03T17:28:15.483Z,0.00
2018-11-03T17:29:15.488Z,0.00
2018-11-03T17:31:08.457Z,0.00
2018-11-03T17:32:08.398Z,0.00
2018-11-03T17:34:01.297Z,0.00
2018-11-03T17:35:01.314Z,0.00
2018-11-03T17:36:54.220Z,0.00
2018-11-03T17:37:54.219Z,0.00
2018-11-03T17:39:47.110Z,0.00
2018-11-03T17:40:47.128Z,0.00
2018-11-03T17:42:40.027Z,0.00
2018-11-03T17:43:40.072Z,0.00
2018-11-03T17:45:32.942Z,0.00
2018-11-03T17:46:32.937Z,0.00
2018-11-03T17:48:25.836Z,0.00
2018-11-03T17:49:25.844Z,0.00
2018-11-03T17:51:18.752Z,0.00
2018-11-03T17:52:18.755Z,0.00
2018-11-03T17:54:11.755Z,0.00
2018-11-03T17:55:11.718Z,0.00
2018-11-03T17:57:04.625Z,0.00
2018-11-03T17:58:04.632Z,0.00
2018-11-03T17:59:58.553Z,0.00
2018-11-03T18:00:58.680Z,0.00
2018-11-03T18:02:51.441Z,0.00
2018-11-03T18:03:51.442Z,0.00
2018-11-03T18:05:44.338Z,0.00
2018-11-03T18:06:44.353Z,0.00
2018-11-03T18:08:37.250Z,0.00
2018-11-03T18:09:37.254Z,0.00
2018-11-03T18:11:30.163Z,0.00
2018-11-03T18:12:30.160Z,0.00
2018-11-03T18:14:23.061Z,0.00
2018-11-03T18:15:23.063Z,0.00
2018-11-03T18:17:15.969Z,0.00